Time;durP1;ratioP1;P1;durP2;ratioP2;P2;SDS_P1;SDS_P2;PMS_P1;PMS_P2;Temp;Humidity;BMP_temperature;BMP_pressure;BME280_temperature;BME280_humidity;BME280_pressure;Samples;Min_cycle;Max_cycle;Signal;HPM_P1;HPM_P2
2021/01/04 00:02:05;;;;;;;8.73;7.53;;;21.80;52.20;;;;;;5095187;28;20400;-67
2021/01/04 00:05:03;;;;;;;8.53;7.43;;;21.80;52.20;;;;;;5095024;28;20396;-67
2021/01/04 00:07:50;;;;;;;7.47;6.87;;;21.90;52.30;;;;;;5079254;28;20534;-67
2021/01/04 00:10:34;;;;;;;8.67;7.70;;;21.80;52.20;;;;;;5094988;28;20384;-65
2021/01/04 00:13:20;;;;;;;8.37;7.50;;;21.80;52.20;;;;;;5094934;28;20388;-66
2021/01/04 00:16:10;;;;;;;8.63;7.73;;;21.80;52.20;;;;;;5094253;28;20814;-67
2021/01/04 00:18:46;;;;;;;8.37;7.53;;;21.80;52.20;;;;;;5095197;28;20455;-67
2021/01/04 00:21:47;;;;;;;7.27;6.50;;;21.80;52.30;;;;;;5094760;28;20394;-67
2021/01/04 00:24:31;;;;;;;8.87;7.23;;;21.80;52.20;;;;;;5094933;28;20418;-67
2021/01/04 00:27:18;;;;;;;10.17;7.20;;;21.70;52.20;;;;;;5094961;28;20446;-67
2021/01/04 00:29:44;;;;;;;8.30;7.50;;;21.80;52.30;;;;;;5094827;28;20384;-67
2021/01/04 00:32:33;;;;;;;8.03;7.27;;;21.80;52.90;;;;;;5095032;28;20899;-67
2021/01/04 00:35:05;;;;;;;7.83;7.13;;;21.80;52.30;;;;;;5094750;28;20181;-67
2021/01/04 00:38:17;;;;;;;8.60;7.70;;;21.80;52.30;;;;;;5094238;28;20454;-67
2021/01/04 00:41:08;;;;;;;8.40;7.60;;;21.80;52.30;;;;;;5094334;28;20399;-69
2021/01/04 00:43:40;;;;;;;8.30;7.40;;;21.80;52.30;;;;;;5094504;28;20408;-69
2021/01/04 00:46:07;;;;;;;8.77;7.00;;;21.80;52.30;;;;;;5094552;28;20376;-69
2021/01/04 00:48:44;;;;;;;7.30;6.50;;;21.80;52.30;;;;;;5094128;28;20434;-68
2021/01/04 00:51:16;;;;;;;8.70;7.80;;;21.80;52.30;;;;;;5094253;28;20389;-69
2021/01/04 00:53:47;;;;;;;8.37;7.57;;;21.80;52.30;;;;;;5094383;28;20392;-69
2021/01/04 00:56:31;;;;;;;7.70;6.93;;;21.80;52.30;;;;;;5075799;28;20516;-69
2021/01/04 00:59:12;;;;;;;7.37;6.67;;;21.80;52.20;;;;;;5094164;28;20488;-68
2021/01/04 01:01:37;;;;;;;8.40;7.60;;;21.80;52.20;;;;;;5093959;28;20410;-69
2021/01/04 01:04:36;;;;;;;7.97;7.13;;;21.80;52.20;;;;;;5093924;28;20981;-69
2021/01/04 01:07:10;;;;;;;8.10;7.30;;;21.80;52.20;;;;;;5093771;28;20185;-69
2021/01/04 01:09:40;;;;;;;9.43;7.07;;;21.80;52.20;;;;;;5093903;28;20711;-68
2021/01/04 01:12:34;;;;;;;7.97;7.17;;;21.80;52.20;;;;;;5093766;28;20408;-69
2021/01/04 01:15:08;;;;;;;7.30;6.53;;;21.80;52.20;;;;;;5094024;28;20457;-69
2021/01/04 01:17:39;;;;;;;9.10;6.37;;;21.80;52.20;;;;;;5093908;28;20429;-69
2021/01/04 01:20:09;;;;;;;7.90;6.40;;;21.80;52.20;;;;;;5093554;28;20447;-68
2021/01/04 01:22:37;;;;;;;7.80;7.10;;;21.80;52.20;;;;;;5093595;28;20396;-68
2021/01/04 01:25:14;;;;;;;7.63;6.80;;;21.80;52.20;;;;;;5094402;28;20886;-69
2021/01/04 01:28:17;;;;;;;7.10;6.43;;;21.80;52.20;;;;;;5093318;28;20458;-69
2021/01/04 01:30:45;;;;;;;6.70;6.10;;;21.80;52.20;;;;;;5075300;28;20416;-69
2021/01/04 01:33:14;;;;;;;8.30;7.30;;;21.80;52.20;;;;;;5093692;28;20485;-69
2021/01/04 01:36:07;;;;;;;7.63;6.40;;;21.80;52.20;;;;;;5093274;28;20410;-69
2021/01/04 01:38:52;;;;;;;7.57;6.50;;;21.80;52.20;;;;;;5093295;28;20457;-69
2021/01/04 01:41:30;;;;;;;6.80;6.20;;;21.80;52.20;;;;;;5093918;28;20380;-69
2021/01/04 01:44:15;;;;;;;6.73;6.20;;;21.80;52.20;;;;;;5093597;28;20474;-69
2021/01/04 01:47:13;;;;;;;7.60;6.20;;;21.80;52.20;;;;;;5093238;28;20941;-69
2021/01/04 01:50:01;;;;;;;7.03;6.30;;;21.80;52.30;;;;;;5061873;28;20423;-69
2021/01/04 01:52:59;;;;;;;6.37;5.87;;;21.80;52.20;;;;;;5093258;28;20396;-68
2021/01/04 01:55:32;;;;;;;7.90;7.10;;;21.80;52.20;;;;;;5093134;28;20445;-69
2021/01/04 01:58:16;;;;;;;6.70;5.90;;;21.70;52.20;;;;;;5092999;28;20514;-69
2021/01/04 02:01:00;;;;;;;6.60;6.10;;;21.70;52.20;;;;;;5093155;28;20394;-69
2021/01/04 02:03:45;;;;;;;6.00;5.40;;;21.80;52.20;;;;;;5093680;28;20733;-69
2021/01/04 02:06:51;;;;;;;6.80;6.00;;;21.80;52.20;;;;;;5093335;28;20491;-69
2021/01/04 02:09:31;;;;;;;6.13;5.63;;;21.80;52.20;;;;;;5092925;28;20510;-69
2021/01/04 02:12:24;;;;;;;7.30;6.50;;;21.80;52.20;;;;;;5093047;28;20392;-69
2021/01/04 02:15:36;;;;;;;6.40;5.77;;;21.80;52.20;;;;;;5093499;28;20404;-69
2021/01/04 02:18:43;;;;;;;9.43;5.80;;;21.80;52.40;;;;;;5010893;28;20977;-69
2021/01/04 02:21:28;;;;;;;6.70;6.00;;;21.70;52.20;;;;;;5092920;28;20404;-69
2021/01/04 02:24:09;;;;;;;7.20;5.53;;;21.70;52.20;;;;;;5092956;28;20392;-69
2021/01/04 02:26:40;;;;;;;5.60;5.10;;;21.70;52.20;;;;;;5093093;28;20840;-69
2021/01/04 02:29:19;;;;;;;7.37;6.00;;;21.70;52.20;;;;;;5093143;28;20785;-68
2021/01/04 02:31:48;;;;;;;6.77;5.90;;;21.80;52.20;;;;;;5092769;28;20411;-69
2021/01/04 02:34:17;;;;;;;6.30;5.63;;;21.70;52.20;;;;;;5092802;28;20419;-69
2021/01/04 02:36:53;;;;;;;6.80;6.10;;;21.70;52.20;;;;;;5092595;28;20479;-69
2021/01/04 02:39:28;;;;;;;6.40;5.80;;;21.70;52.10;;;;;;5095779;28;20559;-69
2021/01/04 02:42:11;;;;;;;9.10;6.87;;;21.70;52.20;;;;;;5097518;28;20863;-69
2021/01/04 02:44:38;;;;;;;6.30;5.70;;;21.80;52.20;;;;;;5096815;28;20491;-68
2021/01/04 02:47:33;;;;;;;6.43;5.67;;;21.70;52.10;;;;;;5096817;28;20448;-69
2021/01/04 02:50:26;;;;;;;7.53;6.50;;;21.70;52.10;;;;;;5061735;28;20411;-69
2021/01/04 02:53:35;;;;;;;6.07;5.47;;;21.80;52.20;;;;;;5097020;28;20415;-69
2021/01/04 02:56:25;;;;;;;6.97;6.27;;;21.70;52.20;;;;;;5096712;28;20411;-69
2021/01/04 02:59:12;;;;;;;6.23;5.67;;;21.70;52.20;;;;;;5096301;28;20500;-69
2021/01/04 03:02:14;;;;;;;6.27;5.50;;;21.70;52.20;;;;;;5096292;28;20482;-69
2021/01/04 03:04:40;;;;;;;6.57;5.97;;;21.70;52.20;;;;;;5096217;28;21021;-69
2021/01/04 03:07:23;;;;;;;6.70;6.10;;;21.70;52.20;;;;;;5096387;28;20793;-69
2021/01/04 03:09:52;;;;;;;6.53;5.93;;;21.70;52.20;;;;;;5096698;28;20871;-68
2021/01/04 03:12:38;;;;;;;6.13;5.53;;;21.70;52.20;;;;;;5096343;28;20412;-69
2021/01/04 03:15:17;;;;;;;5.90;5.30;;;21.70;52.70;;;;;;5096130;28;20422;-69
2021/01/04 03:17:48;;;;;;;5.97;5.37;;;21.70;52.20;;;;;;5095982;28;20442;-69
2021/01/04 03:20:22;;;;;;;5.03;4.63;;;21.70;52.20;;;;;;5077751;28;20801;-68
2021/01/04 03:22:49;;;;;;;5.73;5.17;;;21.70;52.20;;;;;;5096451;28;20855;-67
2021/01/04 03:25:31;;;;;;;5.57;5.07;;;21.70;52.20;;;;;;5096130;28;20840;-69
2021/01/04 03:27:59;;;;;;;5.67;5.17;;;21.70;52.20;;;;;;5095841;28;20930;-69
2021/01/04 03:30:25;;;;;;;5.50;5.10;;;21.70;52.20;;;;;;5095798;28;20752;-69
2021/01/04 03:32:51;;;;;;;5.40;4.90;;;21.70;52.20;;;;;;5096034;28;20544;-69
2021/01/04 03:35:17;;;;;;;5.03;4.63;;;21.70;52.20;;;;;;5096126;28;20506;-68
2021/01/04 03:37:43;;;;;;;5.30;4.50;;;21.70;52.20;;;;;;5095518;28;20209;-69
2021/01/04 03:40:09;;;;;;;5.67;5.13;;;21.70;52.20;;;;;;5095529;28;20462;-69
2021/01/04 03:42:34;;;;;;;5.63;4.97;;;21.70;52.20;;;;;;5095901;28;20170;-69
2021/01/04 03:45:00;;;;;;;5.47;4.97;;;21.70;52.20;;;;;;5095769;28;20933;-69
2021/01/04 03:47:25;;;;;;;5.70;5.10;;;21.70;52.20;;;;;;5095436;28;20190;-69
2021/01/04 03:49:52;;;;;;;5.57;5.07;;;21.70;52.20;;;;;;5094312;28;20208;-68
2021/01/04 03:52:17;;;;;;;5.77;5.17;;;21.70;52.20;;;;;;5095394;28;20238;-68
2021/01/04 03:54:43;;;;;;;5.57;5.07;;;21.60;52.20;;;;;;5095340;28;20411;-69
2021/01/04 03:57:10;;;;;;;4.57;4.17;;;21.60;52.10;;;;;;5095484;28;20189;-69
2021/01/04 03:59:36;;;;;;;5.27;4.87;;;21.60;52.10;;;;;;5095123;28;20447;-69
2021/01/04 04:02:02;;;;;;;5.27;4.77;;;21.60;52.20;;;;;;5095221;28;20909;-69
2021/01/04 04:04:28;;;;;;;5.00;4.53;;;21.60;52.20;;;;;;5095658;28;20595;-68
2021/01/04 04:06:54;;;;;;;5.30;4.80;;;21.60;52.20;;;;;;5095313;28;20507;-68
2021/01/04 04:09:21;;;;;;;4.97;4.47;;;21.60;52.20;;;;;;5095614;28;20174;-68
2021/01/04 04:11:47;;;;;;;5.13;4.70;;;21.60;52.20;;;;;;5094981;28;20263;-69
2021/01/04 04:14:13;;;;;;;6.30;5.70;;;21.60;52.20;;;;;;5094977;28;20403;-68
2021/01/04 04:16:38;;;;;;;5.03;4.53;;;21.60;52.20;;;;;;5095103;28;20791;-69
2021/01/04 04:19:05;;;;;;;5.20;4.70;;;21.60;52.20;;;;;;5095121;28;20209;-68
2021/01/04 04:21:32;;;;;;;5.23;4.73;;;21.60;52.20;;;;;;5095155;28;20205;-68
2021/01/04 04:23:57;;;;;;;5.03;4.53;;;21.60;52.20;;;;;;5076692;28;20977;-65
2021/01/04 04:26:25;;;;;;;4.93;4.10;;;21.60;52.20;;;;;;5094697;28;20439;-69
2021/01/04 04:28:51;;;;;;;5.03;4.63;;;21.60;52.20;;;;;;5094908;28;20190;-68
2021/01/04 04:31:17;;;;;;;5.20;4.67;;;21.60;52.20;;;;;;5095149;28;20816;-68
2021/01/04 04:33:45;;;;;;;5.77;4.70;;;21.60;52.20;;;;;;5094641;28;20223;-68
2021/01/04 04:36:21;;;;;;;5.67;5.10;;;21.60;52.20;;;;;;5094466;28;20493;-68
2021/01/04 04:38:47;;;;;;;5.03;4.60;;;21.60;52.20;;;;;;5094387;28;20486;-68
2021/01/04 04:41:42;;;;;;;5.57;4.93;;;21.60;52.20;;;;;;5094397;28;20412;-67
2021/01/04 04:44:11;;;;;;;4.47;4.07;;;21.60;52.20;;;;;;5094412;28;20154;-68
2021/01/04 04:47:04;;;;;;;5.33;4.50;;;21.60;52.20;;;;;;5076068;28;20510;-68
2021/01/04 04:50:06;;;;;;;4.50;4.10;;;21.60;52.20;;;;;;5094227;28;20442;-68
2021/01/04 04:52:55;;;;;;;5.23;4.77;;;21.60;52.20;;;;;;5094135;28;20910;-68
2021/01/04 04:55:46;;;;;;;5.77;5.17;;;21.60;52.20;;;;;;5054727;28;20412;-68
2021/01/04 04:58:34;;;;;;;6.03;4.70;;;21.50;52.20;;;;;;5056405;28;20929;-68
2021/01/04 05:01:37;;;;;;;5.70;5.20;;;21.60;52.30;;;;;;5093570;28;20462;-68
2021/01/04 05:04:20;;;;;;;4.30;3.90;;;21.60;52.30;;;;;;5093945;28;20953;-68
2021/01/04 05:06:54;;;;;;;4.93;4.53;;;21.50;52.20;;;;;;5094302;28;20902;-68
2021/01/04 05:09:20;;;;;;;6.37;4.80;;;21.50;52.30;;;;;;5094194;28;20391;-68
2021/01/04 05:11:59;;;;;;;4.40;4.10;;;21.50;52.30;;;;;;5075603;28;20412;-68
2021/01/04 05:14:28;;;;;;;4.60;4.10;;;21.60;52.30;;;;;;5075622;28;20195;-68
2021/01/04 05:17:13;;;;;;;5.10;4.60;;;21.50;52.30;;;;;;5093862;28;20435;-68
2021/01/04 05:20:10;;;;;;;4.30;3.90;;;21.60;52.30;;;;;;5093874;28;20444;-68
2021/01/04 05:23:05;;;;;;;4.80;4.40;;;21.50;52.20;;;;;;5093885;28;20896;-68
2021/01/04 05:25:59;;;;;;;4.40;4.00;;;21.50;52.30;;;;;;5093660;28;20396;-68
2021/01/04 05:28:34;;;;;;;4.90;4.33;;;21.50;52.40;;;;;;5093411;28;20476;-68
2021/01/04 05:31:33;;;;;;;4.50;4.10;;;21.50;52.40;;;;;;5093802;28;20402;-68
2021/01/04 05:34:11;;;;;;;4.90;4.40;;;21.50;52.30;;;;;;5075380;28;20408;-68
2021/01/04 05:37:02;;;;;;;4.57;4.17;;;21.50;52.40;;;;;;5093570;28;20952;-68
2021/01/04 05:39:39;;;;;;;4.70;4.00;;;21.50;52.30;;;;;;5093650;28;20918;-67
2021/01/04 05:42:25;;;;;;;4.63;4.00;;;21.50;52.40;;;;;;5093614;28;20406;-68
2021/01/04 05:45:01;;;;;;;5.37;4.50;;;21.50;52.30;;;;;;5093344;28;20392;-68
2021/01/04 05:47:58;;;;;;;5.63;4.67;;;21.50;52.30;;;;;;5093160;28;20423;-68
2021/01/04 05:50:39;;;;;;;4.07;3.57;;;21.60;52.30;;;;;;5093058;28;20414;-68
2021/01/04 05:53:04;;;;;;;4.83;4.30;;;21.50;52.30;;;;;;5093466;28;20898;-68
2021/01/04 05:55:30;;;;;;;4.70;4.23;;;21.50;52.30;;;;;;5093165;28;20409;-68
2021/01/04 05:57:55;;;;;;;4.00;3.60;;;21.50;52.30;;;;;;5075000;28;20189;-68
2021/01/04 06:00:28;;;;;;;4.50;4.10;;;21.50;52.30;;;;;;5093054;28;20617;-68
2021/01/04 06:03:14;;;;;;;4.50;4.10;;;21.50;52.30;;;;;;5093103;28;20172;-69
2021/01/04 06:05:40;;;;;;;5.90;5.07;;;21.60;52.40;;;;;;5093036;28;20380;-68
2021/01/04 06:08:18;;;;;;;4.47;4.07;;;21.60;52.40;;;;;;5075012;28;20845;-68
2021/01/04 06:10:44;;;;;;;5.40;4.60;;;21.60;52.40;;;;;;5093328;28;20387;-68
2021/01/04 06:13:18;;;;;;;5.77;4.10;;;21.60;52.40;;;;;;5093937;28;20411;-68
2021/01/04 06:15:44;;;;;;;4.23;3.83;;;21.60;52.40;;;;;;5097495;28;20157;-68
2021/01/04 06:18:24;;;;;;;4.03;3.73;;;21.60;52.40;;;;;;5097029;28;20501;-68
2021/01/04 06:21:02;;;;;;;4.50;3.67;;;21.60;52.30;;;;;;5097104;28;20425;-68
2021/01/04 06:23:33;;;;;;;4.47;4.07;;;21.60;52.30;;;;;;5097438;28;20753;-68
2021/01/04 06:26:10;;;;;;;4.60;4.20;;;21.60;52.30;;;;;;5078837;28;20495;-68
2021/01/04 06:29:06;;;;;;;3.77;3.47;;;21.60;52.30;;;;;;5096881;28;20423;-69
2021/01/04 06:31:50;;;;;;;4.53;3.93;;;21.60;52.30;;;;;;5097158;28;20483;-68
2021/01/04 06:34:35;;;;;;;4.40;3.70;;;21.60;52.30;;;;;;5097166;28;20395;-68
2021/01/04 06:37:18;;;;;;;3.93;3.63;;;21.60;52.30;;;;;;5096963;28;20865;-68
2021/01/04 06:39:50;;;;;;;3.83;3.40;;;21.60;52.30;;;;;;5096802;28;20439;-67
2021/01/04 06:42:22;;;;;;;4.10;3.63;;;21.60;52.30;;;;;;5096707;28;20387;-68
2021/01/04 06:45:12;;;;;;;4.30;3.90;;;21.60;52.30;;;;;;5096964;28;20513;-68
2021/01/04 06:47:40;;;;;;;4.50;4.10;;;21.60;52.30;;;;;;5096515;28;20411;-68
2021/01/04 06:50:31;;;;;;;3.17;2.90;;;21.60;52.30;;;;;;5078349;28;20457;-67
2021/01/04 06:53:32;;;;;;;3.93;3.53;;;21.60;52.30;;;;;;5096810;28;20391;-68
2021/01/04 06:56:17;;;;;;;4.00;3.47;;;21.60;52.30;;;;;;5096746;28;20932;-67
2021/01/04 06:58:48;;;;;;;4.40;4.00;;;21.60;52.90;;;;;;5096564;28;20428;-68
2021/01/04 07:01:58;;;;;;;8.73;4.07;;;21.60;52.30;;;;;;5096343;28;20491;-68
2021/01/04 07:04:27;;;;;;;3.37;3.03;;;21.60;52.30;;;;;;5095204;28;20435;-68
2021/01/04 07:07:19;;;;;;;4.77;4.03;;;21.60;52.40;;;;;;5096110;28;20423;-66
2021/01/04 07:10:02;;;;;;;4.10;3.70;;;21.60;52.30;;;;;;5096706;28;20380;-68
2021/01/04 07:13:03;;;;;;;4.03;3.73;;;21.60;52.30;;;;;;5096422;28;20740;-67
2021/01/04 07:15:31;;;;;;;4.53;4.03;;;21.60;52.30;;;;;;5078193;28;20416;-68
2021/01/04 07:18:18;;;;;;;4.60;4.20;;;21.60;52.40;;;;;;5095978;28;20431;-68
2021/01/04 07:20:58;;;;;;;4.63;3.97;;;21.60;52.30;;;;;;5096270;28;20400;-68
2021/01/04 07:23:49;;;;;;;3.83;3.53;;;21.60;52.30;;;;;;5095851;28;20468;-68
2021/01/04 07:26:45;;;;;;;4.37;3.97;;;21.60;52.30;;;;;;5096090;28;20383;-67
2021/01/04 07:29:40;;;;;;;4.33;3.50;;;21.60;52.30;;;;;;5095859;28;20757;-68
2021/01/04 07:32:19;;;;;;;4.17;3.77;;;21.60;52.30;;;;;;5096569;28;20855;-68
2021/01/04 07:35:00;;;;;;;8.70;7.17;;;21.60;52.90;;;;;;5095994;28;20383;-68
2021/01/04 07:37:49;;;;;;;8.13;6.77;;;21.60;52.00;;;;;;5095557;28;20462;-68
2021/01/04 07:40:42;;;;;;;5.00;4.60;;;21.60;51.80;;;;;;5077433;28;20447;-67
2021/01/04 07:43:23;;;;;;;4.77;4.37;;;21.60;51.80;;;;;;5095550;28;20392;-68
2021/01/04 07:46:27;;;;;;;4.37;3.97;;;21.60;51.80;;;;;;5095747;28;20406;-68
2021/01/04 07:49:11;;;;;;;8.43;4.30;;;21.60;51.80;;;;;;5094957;28;20806;-68
2021/01/04 07:51:39;;;;;;;4.03;3.70;;;21.60;51.80;;;;;;5095392;28;20400;-67
2021/01/04 07:54:42;;;;;;;5.30;4.00;;;21.60;51.80;;;;;;5095376;28;20451;-68
2021/01/04 07:57:42;;;;;;;5.93;4.20;;;21.60;51.80;;;;;;5095531;28;20800;-68
2021/01/04 08:00:23;;;;;;;3.63;3.20;;;21.60;51.80;;;;;;5095439;28;20436;-67
2021/01/04 08:03:26;;;;;;;4.20;3.63;;;21.60;51.90;;;;;;5095403;28;20384;-68
2021/01/04 08:06:03;;;;;;;4.17;3.77;;;21.60;51.80;;;;;;5095059;28;20456;-67
2021/01/04 08:08:47;;;;;;;4.37;3.97;;;21.60;51.90;;;;;;5076856;28;20431;-68
2021/01/04 08:11:15;;;;;;;4.40;3.60;;;21.60;51.90;;;;;;5095649;28;20844;-68
2021/01/04 08:14:05;;;;;;;4.10;3.70;;;21.60;51.90;;;;;;5095150;28;20457;-68
2021/01/04 08:16:44;;;;;;;4.00;3.60;;;21.60;51.80;;;;;;5094818;28;20404;-67
2021/01/04 08:19:13;;;;;;;4.00;3.40;;;21.60;51.80;;;;;;5094748;28;20443;-68
2021/01/04 08:21:57;;;;;;;4.93;3.90;;;21.60;51.80;;;;;;5094812;28;20404;-68
2021/01/04 08:24:25;;;;;;;4.33;3.93;;;21.60;51.80;;;;;;5094706;28;20399;-68
2021/01/04 08:27:06;;;;;;;3.97;3.67;;;21.60;51.90;;;;;;5094871;28;20427;-67
2021/01/04 08:30:00;;;;;;;4.23;3.83;;;21.60;51.90;;;;;;5095172;28;20384;-68
2021/01/04 08:32:29;;;;;;;3.97;3.57;;;21.60;51.90;;;;;;5094585;28;20399;-68
2021/01/04 08:35:06;;;;;;;4.07;3.67;;;21.60;51.90;;;;;;5094476;28;20434;-69
2021/01/04 08:37:36;;;;;;;4.03;3.70;;;21.60;51.90;;;;;;5093818;28;20454;-67
2021/01/04 08:40:20;;;;;;;4.00;3.23;;;21.60;51.90;;;;;;5094385;28;20466;-69
2021/01/04 08:43:04;;;;;;;3.93;3.53;;;21.60;51.80;;;;;;5095194;28;20863;-67
2021/01/04 08:45:45;;;;;;;4.20;3.30;;;21.60;51.90;;;;;;5094145;28;20403;-67
2021/01/04 08:48:18;;;;;;;3.93;3.50;;;21.60;51.90;;;;;;5094410;28;20431;-69
2021/01/04 08:50:58;;;;;;;4.80;3.40;;;21.60;51.90;;;;;;5094397;28;20492;-69
2021/01/04 08:53:24;;;;;;;3.40;3.10;;;21.60;51.80;;;;;;5094315;28;20438;-69
2021/01/04 08:55:52;;;;;;;5.40;4.10;;;21.60;51.90;;;;;;5094107;28;20446;-68
2021/01/04 08:58:21;;;;;;;3.40;3.10;;;21.60;51.90;;;;;;5094217;28;20687;-70
2021/01/04 09:01:16;;;;;;;3.93;3.33;;;21.60;51.90;;;;;;5075867;28;20450;-68
2021/01/04 09:03:42;;;;;;;5.17;3.37;;;21.70;51.90;;;;;;5094285;28;20391;-67
2021/01/04 09:06:22;;;;;;;4.40;3.57;;;21.70;52.00;;;;;;5093875;28;20403;-68
2021/01/04 09:08:53;;;;;;;4.07;3.67;;;21.70;52.00;;;;;;5093938;28;20639;-68
2021/01/04 09:11:19;;;;;;;6.53;3.60;;;21.70;52.00;;;;;;5094508;28;20453;-68
2021/01/04 09:13:47;;;;;;;4.20;3.77;;;21.70;52.00;;;;;;5093833;28;20404;-67
2021/01/04 09:16:12;;;;;;;7.50;3.60;;;21.80;52.10;;;;;;5093679;28;20434;-69
2021/01/04 09:18:45;;;;;;;3.87;3.00;;;21.80;52.10;;;;;;5093956;28;20447;-71
2021/01/04 09:21:37;;;;;;;4.47;2.93;;;21.80;52.10;;;;;;5093681;28;20208;-69
2021/01/04 09:24:26;;;;;;;3.97;3.57;;;21.80;52.10;;;;;;5093946;28;20416;-69
2021/01/04 09:26:55;;;;;;;3.73;3.33;;;21.80;52.10;;;;;;5082944;28;20808;-69
2021/01/04 09:29:26;;;;;;;4.40;3.97;;;21.80;52.10;;;;;;5075626;28;20479;-68
2021/01/04 09:32:05;;;;;;;3.90;3.30;;;21.80;52.10;;;;;;5093746;28;20392;-68
2021/01/04 09:34:31;;;;;;;4.00;3.10;;;21.80;52.00;;;;;;5093344;28;20933;-67
2021/01/04 09:37:12;;;;;;;3.97;3.60;;;21.80;52.00;;;;;;5093517;28;20463;-68
2021/01/04 09:39:40;;;;;;;6.73;3.90;;;21.80;52.00;;;;;;5093553;28;20587;-68
2021/01/04 09:42:10;;;;;;;3.67;3.30;;;21.80;52.00;;;;;;5093346;28;20931;-70
2021/01/04 09:44:36;;;;;;;4.70;3.67;;;21.90;52.10;;;;;;5093363;28;20751;-70
2021/01/04 09:47:06;;;;;;;3.87;2.97;;;21.80;52.00;;;;;;5093151;28;20427;-70
2021/01/04 09:49:44;;;;;;;4.60;3.53;;;21.90;52.00;;;;;;5093498;28;20219;-71
2021/01/04 09:52:31;;;;;;;4.57;3.60;;;21.90;52.60;;;;;;5093112;28;20426;-70
2021/01/04 09:55:04;;;;;;;3.50;3.03;;;21.90;52.10;;;;;;5093201;28;20935;-70
2021/01/04 09:57:34;;;;;;;3.93;2.87;;;21.90;52.20;;;;;;5093360;28;20431;-70
2021/01/04 09:59:59;;;;;;;6.40;4.07;;;21.80;52.10;;;;;;5093039;28;20601;-68
2021/01/04 10:02:32;;;;;;;4.20;3.53;;;21.80;52.10;;;;;;5093074;28;20495;-69
2021/01/04 10:05:09;;;;;;;5.50;3.80;;;21.90;52.20;;;;;;5093328;28;20162;-69
2021/01/04 10:07:36;;;;;;;3.90;3.20;;;21.90;52.20;;;;;;5093042;28;20431;-69
2021/01/04 10:10:09;;;;;;;12.77;4.37;;;21.80;52.10;;;;;;5074866;28;20549;-69
2021/01/04 10:12:34;;;;;;;3.13;2.83;;;21.90;52.10;;;;;;5093258;28;20400;-68
2021/01/04 10:15:04;;;;;;;3.37;3.07;;;21.80;52.10;;;;;;5093225;28;20422;-70
2021/01/04 10:17:40;;;;;;;3.60;3.03;;;21.90;52.20;;;;;;5074902;28;20205;-68
2021/01/04 10:20:23;;;;;;;4.93;3.90;;;21.90;52.10;;;;;;5093108;28;20436;-69
2021/01/04 10:22:53;;;;;;;4.97;3.67;;;21.90;52.10;;;;;;5093106;28;20479;-68
2021/01/04 10:25:22;;;;;;;5.30;3.33;;;21.80;52.10;;;;;;5092836;28;20771;-67
2021/01/04 10:27:57;;;;;;;5.70;4.20;;;21.80;52.10;;;;;;5092950;28;20436;-67
2021/01/04 10:30:25;;;;;;;6.20;3.70;;;21.80;52.10;;;;;;5093169;28;20391;-69
2021/01/04 10:33:03;;;;;;;6.10;3.30;;;21.80;52.10;;;;;;5093032;28;20426;-65
2021/01/04 10:35:28;;;;;;;5.60;3.70;;;21.90;52.10;;;;;;5093059;28;20388;-67
2021/01/04 10:38:12;;;;;;;4.40;3.83;;;21.90;52.10;;;;;;5092650;28;20811;-67
2021/01/04 10:40:44;;;;;;;5.37;3.70;;;21.90;52.10;;;;;;5092843;28;20161;-67
2021/01/04 10:43:10;;;;;;;4.73;3.60;;;21.90;52.10;;;;;;5092661;28;20388;-67
2021/01/04 10:45:39;;;;;;;4.63;3.63;;;21.90;52.00;;;;;;5092674;28;20927;-67
2021/01/04 10:48:16;;;;;;;6.80;3.93;;;21.90;52.00;;;;;;5092439;28;20412;-67
2021/01/04 10:50:47;;;;;;;5.03;3.47;;;22.00;52.00;;;;;;5092840;28;20765;-68
2021/01/04 10:53:37;;;;;;;6.50;4.00;;;22.00;52.00;;;;;;5092920;28;20380;-68
2021/01/04 10:56:15;;;;;;;5.20;3.80;;;22.00;52.50;;;;;;5092869;28;20466;-67
2021/01/04 10:58:53;;;;;;;5.50;3.80;;;22.00;52.00;;;;;;5092641;28;20431;-67
2021/01/04 11:01:24;;;;;;;5.00;3.37;;;22.10;52.10;;;;;;5096474;28;20898;-69
2021/01/04 11:03:56;;;;;;;7.53;3.40;;;22.10;52.00;;;;;;5096167;28;20748;-69
2021/01/04 11:06:50;;;;;;;4.13;3.70;;;22.10;52.00;;;;;;5078662;28;20380;-69
2021/01/04 11:09:20;;;;;;;6.10;3.30;;;22.10;52.00;;;;;;5065013;28;20498;-68
2021/01/04 11:12:02;;;;;;;6.77;3.60;;;22.10;52.00;;;;;;5096935;28;20793;-69
2021/01/04 11:14:29;;;;;;;5.10;3.80;;;22.10;52.00;;;;;;5095881;28;20415;-68
2021/01/04 11:17:09;;;;;;;5.27;3.70;;;22.10;52.00;;;;;;5095914;28;20502;-67
2021/01/04 11:19:36;;;;;;;5.07;3.27;;;22.10;52.60;;;;;;5096241;28;20526;-66
2021/01/04 11:22:28;;;;;;;3.27;2.93;;;22.10;52.10;;;;;;5096087;28;20388;-67
2021/01/04 11:24:55;;;;;;;4.93;3.10;;;22.10;52.10;;;;;;5091984;28;20837;-67
2021/01/04 11:27:22;;;;;;;4.30;3.60;;;22.10;52.10;;;;;;5077647;28;20435;-68
2021/01/04 11:29:49;;;;;;;3.23;2.93;;;22.10;52.10;;;;;;5096076;28;20404;-67
2021/01/04 11:32:17;;;;;;;4.20;3.50;;;22.10;52.10;;;;;;5095637;28;20502;-68
2021/01/04 11:34:49;;;;;;;4.77;3.50;;;22.10;52.10;;;;;;5077473;28;20424;-68
2021/01/04 11:37:16;;;;;;;3.90;3.50;;;22.10;52.00;;;;;;5095563;28;20447;-66
2021/01/04 11:39:42;;;;;;;4.50;3.07;;;22.20;52.10;;;;;;5095724;28;20774;-67
2021/01/04 11:42:09;;;;;;;4.73;3.07;;;22.20;52.10;;;;;;5095799;28;20410;-67
2021/01/04 11:44:35;;;;;;;3.77;3.10;;;22.20;52.10;;;;;;5095746;28;20640;-68
2021/01/04 11:47:01;;;;;;;5.80;3.00;;;22.20;52.10;;;;;;5095392;28;20424;-67
2021/01/04 11:49:28;;;;;;;4.50;2.70;;;22.20;52.10;;;;;;5077355;28;20264;-69
2021/01/04 11:51:54;;;;;;;4.70;3.40;;;22.20;52.10;;;;;;5095494;28;20243;-69
2021/01/04 11:54:19;;;;;;;3.43;2.87;;;22.20;52.10;;;;;;5095606;28;20768;-68
2021/01/04 11:56:47;;;;;;;3.87;2.93;;;22.20;52.10;;;;;;5095335;28;20416;-69
2021/01/04 11:59:13;;;;;;;3.33;2.97;;;22.20;52.10;;;;;;5095195;28;20178;-68
2021/01/04 12:01:39;;;;;;;3.73;2.80;;;22.20;52.10;;;;;;5095215;28;20983;-67
2021/01/04 12:04:06;;;;;;;4.07;2.93;;;22.20;52.10;;;;;;5095104;28;20404;-66
2021/01/04 12:06:31;;;;;;;3.90;2.87;;;22.20;52.10;;;;;;5095218;28;20170;-67
2021/01/04 12:08:57;;;;;;;3.00;2.70;;;22.20;52.10;;;;;;5095012;28;20406;-67
2021/01/04 12:11:24;;;;;;;4.90;2.30;;;22.30;52.20;;;;;;5093980;28;20173;-67
2021/01/04 12:13:51;;;;;;;3.70;3.10;;;22.30;52.10;;;;;;5095144;28;20547;-67
2021/01/04 12:16:18;;;;;;;4.43;3.00;;;22.30;52.10;;;;;;5094828;28;20928;-66
2021/01/04 12:18:44;;;;;;;4.33;2.93;;;22.30;52.20;;;;;;5076665;28;20448;-66
2021/01/04 12:21:10;;;;;;;4.87;3.30;;;22.30;52.70;;;;;;5094728;28;20411;-67
2021/01/04 12:23:38;;;;;;;3.30;2.90;;;22.30;52.20;;;;;;5094718;28;20415;-67
2021/01/04 12:26:04;;;;;;;4.20;3.20;;;22.30;52.20;;;;;;5094949;28;20937;-67
2021/01/04 12:28:30;;;;;;;4.63;3.60;;;22.30;52.10;;;;;;5094480;28;20185;-67
2021/01/04 12:30:55;;;;;;;3.90;2.97;;;22.30;52.10;;;;;;5094595;28;20173;-68
2021/01/04 12:33:21;;;;;;;2.67;2.47;;;22.30;52.10;;;;;;5094634;28;20706;-67
2021/01/04 12:35:46;;;;;;;4.30;3.07;;;22.30;52.10;;;;;;5094569;28;20256;-68
2021/01/04 12:38:12;;;;;;;3.90;2.70;;;22.30;52.10;;;;;;5094689;28;20202;-67
2021/01/04 12:40:37;;;;;;;5.00;2.50;;;22.30;52.10;;;;;;5094339;28;20198;-68
2021/01/04 12:43:04;;;;;;;4.30;2.63;;;22.30;52.10;;;;;;5094587;28;20173;-69
2021/01/04 12:45:30;;;;;;;3.47;3.17;;;22.30;52.10;;;;;;5094636;28;20674;-68
2021/01/04 12:47:56;;;;;;;3.40;2.43;;;22.30;52.20;;;;;;5094249;28;20435;-65
2021/01/04 12:50:22;;;;;;;8.00;2.80;;;22.30;52.20;;;;;;5094321;28;20408;-66
2021/01/04 12:52:49;;;;;;;4.00;2.67;;;22.30;52.20;;;;;;5091922;28;20212;-68
2021/01/04 12:55:17;;;;;;;4.70;2.70;;;22.30;52.40;;;;;;5093405;28;20178;-66
2021/01/04 12:57:46;;;;;;;3.00;2.40;;;22.30;52.40;;;;;;5094269;28;20803;-65
2021/01/04 13:00:13;;;;;;;2.77;2.43;;;22.30;52.40;;;;;;5094235;28;20443;-65
2021/01/04 13:02:38;;;;;;;4.10;2.50;;;22.30;52.40;;;;;;5094078;28;20404;-67
2021/01/04 13:05:04;;;;;;;4.60;2.50;;;22.20;52.30;;;;;;5093975;28;20400;-66
2021/01/04 13:07:30;;;;;;;3.80;2.50;;;22.20;52.40;;;;;;5093865;28;20204;-71
2021/01/04 13:09:56;;;;;;;4.40;3.00;;;22.20;52.30;;;;;;5093950;28;20471;-66
2021/01/04 13:12:21;;;;;;;3.80;3.10;;;22.20;52.30;;;;;;5093833;28;20174;-67
2021/01/04 13:14:47;;;;;;;4.27;2.70;;;22.20;52.40;;;;;;5093794;28;20174;-67
2021/01/04 13:17:14;;;;;;;4.73;2.83;;;22.20;52.40;;;;;;5094002;28;20189;-66
2021/01/04 13:19:39;;;;;;;2.77;2.10;;;22.20;52.40;;;;;;5075485;28;20678;-66
2021/01/04 13:22:05;;;;;;;3.47;2.57;;;22.20;52.40;;;;;;5093443;28;20439;-66
2021/01/04 13:24:31;;;;;;;4.47;2.53;;;22.20;52.40;;;;;;5093545;28;20640;-65
2021/01/04 13:26:58;;;;;;;3.20;2.90;;;22.20;52.40;;;;;;5093494;28;20182;-66
2021/01/04 13:29:29;;;;;;;3.37;2.63;;;22.20;52.40;;;;;;5093801;28;20507;-64
2021/01/04 13:32:04;;;;;;;3.80;3.13;;;22.10;52.40;;;;;;5093868;28;20396;-66
2021/01/04 13:34:30;;;;;;;3.50;2.53;;;22.20;52.50;;;;;;5093372;28;20439;-65
2021/01/04 13:36:57;;;;;;;5.43;3.10;;;22.10;52.40;;;;;;5072653;28;20506;-66